createdAt,value
2022-10-01T00:01:46.921Z,92.34
2022-10-01T00:04:53.110Z,92.43
2022-10-01T00:07:55.483Z,92.59
2022-10-01T00:11:01.184Z,92.66
2022-10-01T00:14:03.457Z,92.49
2022-10-01T00:17:06.350Z,92.44
2022-10-01T00:20:14.133Z,92.00
2022-10-01T00:23:17.251Z,92.08
2022-10-01T00:26:21.066Z,92.18
2022-10-01T00:29:23.837Z,91.38
2022-10-01T00:32:26.770Z,91.27
2022-10-01T00:35:29.566Z,91.50
2022-10-01T00:38:33.940Z,91.80
2022-10-01T00:41:37.097Z,92.20
2022-10-01T00:44:39.633Z,91.91
2022-10-01T00:47:47.003Z,91.99
2022-10-01T00:50:50.304Z,92.02
2022-10-01T00:53:54.706Z,92.11
2022-10-01T00:56:58.082Z,92.31
2022-10-01T01:00:02.536Z,92.37
2022-10-01T01:03:05.756Z,92.16
2022-10-01T01:06:09.805Z,92.41
2022-10-01T01:09:12.390Z,92.59
2022-10-01T01:12:18.077Z,92.50
2022-10-01T01:15:47.325Z,92.56
2022-10-01T01:18:58.098Z,92.56
2022-10-01T01:22:03.283Z,92.83
2022-10-01T01:25:06.104Z,92.60
2022-10-01T01:28:14.552Z,92.52
2022-10-01T01:31:23.678Z,92.54
2022-10-01T01:34:28.807Z,92.63
2022-10-01T01:37:34.962Z,92.88
2022-10-01T01:40:39.813Z,92.92
2022-10-01T01:43:45.742Z,92.64
2022-10-01T01:46:49.497Z,92.58
2022-10-01T01:49:52.766Z,92.32
2022-10-01T01:52:55.677Z,92.44
2022-10-01T01:56:00.313Z,92.51
2022-10-01T01:59:03.607Z,92.40
2022-10-01T02:02:07.909Z,92.10
2022-10-01T02:05:12.533Z,91.62
2022-10-01T02:08:18.114Z,91.84
2022-10-01T02:11:28.544Z,92.28
2022-10-01T02:14:37.090Z,92.52
2022-10-01T02:17:57.883Z,92.80
2022-10-01T02:21:05.429Z,93.11
2022-10-01T02:24:16.362Z,92.97
2022-10-01T02:27:24.661Z,92.62
2022-10-01T02:30:31.267Z,92.00
2022-10-01T02:33:34.746Z,92.43
2022-10-01T02:36:38.668Z,91.91
2022-10-01T02:39:42.363Z,91.95
2022-10-01T02:42:52.504Z,91.71
2022-10-01T02:45:58.124Z,92.27
2022-10-01T02:49:03.576Z,91.60
2022-10-01T02:52:05.999Z,92.09
2022-10-01T02:55:14.484Z,92.59
2022-10-01T02:58:18.308Z,92.95
2022-10-01T03:01:21.072Z,93.11
2022-10-01T03:04:23.576Z,93.29
2022-10-01T03:07:27.093Z,93.51
2022-10-01T03:10:29.574Z,93.70
2022-10-01T03:13:32.093Z,93.84
2022-10-01T03:16:34.511Z,93.66
2022-10-01T03:19:37.024Z,93.89
2022-10-01T03:22:39.772Z,94.02
2022-10-01T03:25:42.236Z,93.57
2022-10-01T03:28:44.681Z,93.59
2022-10-01T03:31:47.299Z,93.55
2022-10-01T03:34:50.595Z,93.37
2022-10-01T03:37:53.146Z,93.14
2022-10-01T03:40:55.575Z,93.23
2022-10-01T03:44:00.558Z,93.27
2022-10-01T03:47:03.508Z,92.15
2022-10-01T03:50:06.850Z,93.18
2022-10-01T03:53:09.250Z,93.85
2022-10-01T03:56:11.880Z,94.22
2022-10-01T03:59:14.636Z,94.53
2022-10-01T04:02:17.447Z,95.04
2022-10-01T04:05:20.443Z,95.16
2022-10-01T04:08:24.701Z,95.30
2022-10-01T04:11:27.935Z,95.08
2022-10-01T04:14:30.202Z,95.26
2022-10-01T04:17:33.213Z,95.44
2022-10-01T04:20:36.331Z,95.20
2022-10-01T04:23:39.056Z,95.21
2022-10-01T04:26:41.334Z,95.37
2022-10-01T04:29:44.063Z,95.39
2022-10-01T04:32:46.267Z,95.58
2022-10-01T04:35:48.971Z,95.67
2022-10-01T04:38:51.861Z,95.68
2022-10-01T04:41:54.584Z,95.78
2022-10-01T04:44:57.374Z,95.85
2022-10-01T04:48:00.161Z,95.91
2022-10-01T04:51:02.386Z,95.87
2022-10-01T04:54:05.301Z,96.07
2022-10-01T04:57:07.481Z,95.90
2022-10-01T05:00:12.020Z,95.94
2022-10-01T05:03:14.236Z,95.87
2022-10-01T05:06:16.944Z,95.82
2022-10-01T05:09:19.212Z,95.80
2022-10-01T05:12:24.681Z,95.97
2022-10-01T05:15:27.028Z,95.77
2022-10-01T05:18:30.243Z,95.67
2022-10-01T05:21:33.038Z,95.62
2022-10-01T05:24:35.904Z,93.09
2022-10-01T05:27:40.369Z,92.85
2022-10-01T05:30:43.088Z,93.00
2022-10-01T05:33:45.533Z,94.59
2022-10-01T05:36:50.362Z,95.72
2022-10-01T05:39:52.581Z,96.36
2022-10-01T05:42:56.307Z,96.69
2022-10-01T05:46:02.083Z,97.05
2022-10-01T05:49:07.669Z,97.19
2022-10-01T05:52:10.850Z,97.25
2022-10-01T05:55:13.868Z,97.40
2022-10-01T05:58:16.746Z,97.29
2022-10-01T06:01:19.428Z,97.35
2022-10-01T06:04:21.936Z,97.30
2022-10-01T06:07:24.382Z,97.23
2022-10-01T06:10:30.359Z,97.21
2022-10-01T06:13:35.351Z,97.07
2022-10-01T06:16:38.037Z,97.02
2022-10-01T06:19:40.557Z,96.96
2022-10-01T06:22:43.970Z,96.68
2022-10-01T06:25:47.156Z,95.99
2022-10-01T06:28:50.501Z,95.63
2022-10-01T06:31:52.894Z,94.60
2022-10-01T06:34:55.384Z,94.39
2022-10-01T06:37:58.014Z,93.86
2022-10-01T06:41:01.363Z,93.79
2022-10-01T06:44:04.175Z,91.84
2022-10-01T06:47:06.967Z,92.43
2022-10-01T06:50:09.452Z,92.85
2022-10-01T06:53:13.045Z,93.07
2022-10-01T06:56:15.455Z,92.98
2022-10-01T06:59:18.288Z,92.97
2022-10-01T07:02:22.431Z,92.72
2022-10-01T07:05:25.701Z,92.42
2022-10-01T07:08:28.193Z,91.42
2022-10-01T07:11:31.464Z,91.39
2022-10-01T07:14:34.268Z,91.66
2022-10-01T07:17:43.023Z,91.50
2022-10-01T07:20:45.587Z,92.08
2022-10-01T07:23:51.509Z,92.29
2022-10-01T07:26:55.693Z,92.48
2022-10-01T07:29:59.111Z,92.67
2022-10-01T07:33:01.643Z,92.73
2022-10-01T07:36:05.309Z,92.93
2022-10-01T07:39:07.691Z,93.29
2022-10-01T07:42:10.480Z,93.22
2022-10-01T07:45:12.941Z,92.94
2022-10-01T07:48:15.759Z,92.45
2022-10-01T07:51:18.205Z,92.00
2022-10-01T07:54:21.997Z,91.67
2022-10-01T07:57:24.555Z,91.71
2022-10-01T08:00:27.219Z,91.78
2022-10-01T08:03:30.108Z,92.18
2022-10-01T08:06:32.305Z,91.82
2022-10-01T08:09:35.136Z,91.01
2022-10-01T08:12:37.338Z,90.94
2022-10-01T08:15:44.759Z,90.75
2022-10-01T08:18:47.059Z,90.84
2022-10-01T08:21:49.942Z,90.02
2022-10-01T08:24:52.175Z,89.67
2022-10-01T08:27:54.879Z,89.53
2022-10-01T08:30:57.577Z,89.69
2022-10-01T08:34:00.279Z,90.14
2022-10-01T08:37:02.631Z,90.56
2022-10-01T08:40:06.062Z,89.66
2022-10-01T08:43:24.319Z,90.42
2022-10-01T08:46:30.434Z,90.36
2022-10-01T08:49:37.121Z,90.51
2022-10-01T08:52:45.773Z,90.18
2022-10-01T08:55:49.675Z,90.39
2022-10-01T08:59:04.430Z,91.26
2022-10-01T09:02:26.922Z,91.28
2022-10-01T09:05:36.915Z,90.69
2022-10-01T09:08:48.105Z,90.60
2022-10-01T09:12:09.633Z,90.08
2022-10-01T09:15:24.684Z,89.37
2022-10-01T09:18:44.977Z,87.75
2022-10-01T09:21:53.686Z,86.51
2022-10-01T09:25:00.815Z,87.33
2022-10-01T09:28:11.521Z,86.97
2022-10-01T09:31:18.613Z,87.16
2022-10-01T09:34:34.636Z,86.73
2022-10-01T09:37:37.293Z,84.55
2022-10-01T09:40:39.524Z,83.59
2022-10-01T09:43:43.805Z,81.59
2022-10-01T09:46:46.749Z,80.87
2022-10-01T09:49:49.880Z,79.36
2022-10-01T09:52:52.536Z,78.71
2022-10-01T09:55:58.808Z,75.55
2022-10-01T09:59:05.286Z,75.51
2022-10-01T10:02:28.471Z,75.01
2022-10-01T10:05:39.915Z,71.96
2022-10-01T10:08:45.498Z,68.77
2022-10-01T10:11:49.118Z,66.53
2022-10-01T10:14:51.592Z,64.79
2022-10-01T10:17:55.652Z,66.43
2022-10-01T10:20:59.195Z,68.09
2022-10-01T10:24:04.234Z,69.27
2022-10-01T10:27:20.363Z,69.83
2022-10-01T10:30:24.749Z,67.99
2022-10-01T10:33:27.399Z,66.93
2022-10-01T10:36:32.733Z,66.50
2022-10-01T10:39:37.832Z,60.24
2022-10-01T10:42:47.123Z,58.17
2022-10-01T10:45:56.468Z,59.86
2022-10-01T10:49:05.659Z,57.50
2022-10-01T10:52:19.376Z,58.31
2022-10-01T10:55:23.596Z,58.41
2022-10-01T10:58:27.380Z,56.69
2022-10-01T11:01:30.135Z,55.24
2022-10-01T11:04:38.201Z,54.13
2022-10-01T11:07:44.050Z,54.38
2022-10-01T11:10:46.847Z,54.66
2022-10-01T11:14:11.809Z,55.72
2022-10-01T11:17:26.154Z,57.30
2022-10-01T11:20:35.677Z,60.12
2022-10-01T11:23:38.110Z,61.11
2022-10-01T11:26:50.626Z,61.90
2022-10-01T11:30:15.699Z,62.04
2022-10-01T11:33:24.658Z,62.75
2022-10-01T11:36:29.367Z,61.24
2022-10-01T11:39:34.285Z,59.29
2022-10-01T11:42:38.853Z,58.27
2022-10-01T11:45:43.954Z,56.87
2022-10-01T11:48:57.369Z,58.26
2022-10-01T11:52:20.096Z,59.02
2022-10-01T11:55:44.010Z,60.49
2022-10-01T11:58:53.074Z,60.15
2022-10-01T12:02:03.223Z,60.01
2022-10-01T12:05:08.865Z,60.63
2022-10-01T12:08:26.358Z,60.54
2022-10-01T12:11:32.076Z,60.75
2022-10-01T12:14:51.837Z,59.45
2022-10-01T12:17:59.995Z,59.72
2022-10-01T12:21:04.000Z,57.33
2022-10-01T12:24:14.238Z,54.89
2022-10-01T12:27:22.290Z,56.87
2022-10-01T12:30:29.248Z,59.22
2022-10-01T12:33:31.772Z,60.40
2022-10-01T12:36:50.291Z,61.77
2022-10-01T12:39:58.852Z,62.96
2022-10-01T12:43:07.229Z,65.53
2022-10-01T12:46:20.791Z,67.69
2022-10-01T12:49:26.900Z,69.64
2022-10-01T12:52:38.204Z,70.07
2022-10-01T12:55:40.813Z,70.12
2022-10-01T12:58:46.633Z,71.17
2022-10-01T13:01:58.627Z,70.07
2022-10-01T13:05:23.660Z,69.62
2022-10-01T13:08:31.418Z,67.16
2022-10-01T13:12:01.285Z,65.92
2022-10-01T13:15:05.823Z,63.37
2022-10-01T13:18:14.563Z,60.85
2022-10-01T13:21:26.382Z,59.63
2022-10-01T13:24:45.557Z,59.68
2022-10-01T13:28:17.747Z,61.24
2022-10-01T13:31:31.394Z,61.75
2022-10-01T13:34:39.053Z,58.88
2022-10-01T13:37:42.291Z,58.64
2022-10-01T13:40:56.900Z,59.59
2022-10-01T13:44:04.884Z,61.01
2022-10-01T13:47:09.059Z,61.86
2022-10-01T13:50:24.866Z,63.30
2022-10-01T13:53:29.748Z,65.10
2022-10-01T13:56:35.286Z,66.32
2022-10-01T13:59:38.943Z,69.44
2022-10-01T14:02:42.734Z,70.98
2022-10-01T14:05:47.011Z,72.52
2022-10-01T14:08:53.308Z,72.92
2022-10-01T14:12:20.587Z,72.07
2022-10-01T14:15:42.668Z,70.43
2022-10-01T14:18:48.121Z,67.70
2022-10-01T14:22:16.998Z,67.49
2022-10-01T14:25:29.115Z,68.35
2022-10-01T14:28:40.649Z,70.04
2022-10-01T14:32:01.869Z,70.52
2022-10-01T14:35:07.254Z,71.65
2022-10-01T14:38:14.767Z,72.75
2022-10-01T14:41:23.404Z,73.22
2022-10-01T14:44:40.207Z,74.01
2022-10-01T14:47:43.484Z,74.52
2022-10-01T14:50:49.310Z,75.03
2022-10-01T14:53:52.963Z,75.19
2022-10-01T14:56:56.460Z,74.30
2022-10-01T15:00:01.308Z,72.83
2022-10-01T15:03:15.802Z,73.57
2022-10-01T15:06:21.106Z,74.17
2022-10-01T15:09:23.656Z,73.38
2022-10-01T15:12:26.088Z,74.06
2022-10-01T15:15:34.967Z,74.97
2022-10-01T15:18:38.608Z,75.70
2022-10-01T15:21:47.256Z,76.79
2022-10-01T15:24:50.755Z,77.37
2022-10-01T15:27:56.728Z,77.96
2022-10-01T15:31:03.496Z,77.39
2022-10-01T15:34:07.119Z,76.55
2022-10-01T15:37:16.947Z,76.90
2022-10-01T15:40:28.838Z,77.72
2022-10-01T15:43:31.224Z,78.38
2022-10-01T15:46:35.416Z,78.24
2022-10-01T15:49:38.562Z,78.57
2022-10-01T15:52:53.328Z,78.47
2022-10-01T15:55:59.123Z,78.56
2022-10-01T15:59:09.988Z,78.29
2022-10-01T16:02:18.682Z,78.90
2022-10-01T16:05:23.541Z,79.28
2022-10-01T16:08:32.867Z,79.07
2022-10-01T16:11:50.808Z,79.19
2022-10-01T16:14:56.112Z,79.22
2022-10-01T16:17:59.940Z,79.74
2022-10-01T16:21:02.355Z,80.06
2022-10-01T16:24:24.938Z,80.07
2022-10-01T16:27:34.499Z,79.64
2022-10-01T16:30:38.437Z,79.06
2022-10-01T16:33:40.818Z,77.08
2022-10-01T16:36:44.108Z,77.29
2022-10-01T16:39:46.563Z,77.47
2022-10-01T16:42:52.032Z,76.97
2022-10-01T16:45:54.992Z,77.52
2022-10-01T16:49:00.662Z,77.44
2022-10-01T16:52:03.652Z,77.65
2022-10-01T16:55:17.313Z,77.78
2022-10-01T16:58:21.716Z,78.08
2022-10-01T17:01:31.378Z,77.87
2022-10-01T17:04:34.358Z,77.28
2022-10-01T17:07:36.884Z,76.68
2022-10-01T17:10:41.223Z,77.06
2022-10-01T17:13:43.955Z,77.12
2022-10-01T17:16:48.340Z,76.88
2022-10-01T17:19:50.877Z,75.69
2022-10-01T17:22:53.522Z,73.82
2022-10-01T17:25:55.991Z,73.52
2022-10-01T17:28:59.285Z,74.17
2022-10-01T17:32:01.848Z,73.14
2022-10-01T17:35:05.597Z,73.10
2022-10-01T17:38:08.187Z,73.50
2022-10-01T17:41:10.911Z,71.97
2022-10-01T17:44:13.593Z,72.18
2022-10-01T17:47:16.030Z,70.41
2022-10-01T17:50:18.588Z,69.06
2022-10-01T17:53:21.138Z,68.70
2022-10-01T17:56:23.817Z,69.59
2022-10-01T17:59:26.280Z,70.66
2022-10-01T18:02:43.926Z,71.00
2022-10-01T18:05:46.884Z,70.78
2022-10-01T18:08:56.871Z,69.55
2022-10-01T18:12:00.623Z,69.69
2022-10-01T18:15:03.535Z,70.11
2022-10-01T18:21:34.723Z,70.92
2022-10-01T18:24:37.419Z,70.99
2022-10-01T18:27:39.903Z,71.14
2022-10-01T18:30:42.755Z,71.39
2022-10-01T18:33:47.146Z,72.19
2022-10-01T18:36:58.996Z,72.87
2022-10-01T18:40:18.445Z,73.57
2022-10-01T18:43:22.915Z,73.87
2022-10-01T18:46:35.861Z,73.80
2022-10-01T18:49:47.848Z,72.44
2022-10-01T18:53:19.817Z,72.95
2022-10-01T18:56:25.776Z,73.23
2022-10-01T18:59:37.210Z,73.58
2022-10-01T19:03:01.087Z,73.89
2022-10-01T19:06:15.015Z,74.41
2022-10-01T19:09:32.213Z,74.82
2022-10-01T19:12:42.200Z,75.08
2022-10-01T19:15:55.263Z,74.95
2022-10-01T19:19:13.702Z,75.25
2022-10-01T19:22:20.339Z,75.55
2022-10-01T19:25:22.646Z,75.98
2022-10-01T19:28:25.388Z,75.89
2022-10-01T19:31:27.687Z,76.12
2022-10-01T19:34:36.068Z,76.08
2022-10-01T19:37:38.480Z,76.17
2022-10-01T19:40:43.294Z,73.18
2022-10-01T19:44:00.786Z,73.99
2022-10-01T19:47:22.771Z,73.18
2022-10-01T19:50:28.212Z,71.45
2022-10-01T19:53:34.340Z,72.09
2022-10-01T19:56:38.428Z,70.60
2022-10-01T19:59:41.833Z,70.75
2022-10-01T20:03:09.659Z,69.96
2022-10-01T20:06:24.788Z,70.13
2022-10-01T20:09:28.539Z,69.51
2022-10-01T20:12:40.619Z,69.70
2022-10-01T20:15:42.814Z,69.71
2022-10-01T20:18:45.553Z,69.01
2022-10-01T20:21:53.838Z,68.61
2022-10-01T20:25:05.888Z,67.59
2022-10-01T20:28:18.320Z,67.58
2022-10-01T20:31:22.010Z,67.00
2022-10-01T20:34:43.277Z,67.44
2022-10-01T20:38:07.011Z,67.70
2022-10-01T20:41:14.776Z,67.30
2022-10-01T20:44:21.972Z,66.64
2022-10-01T20:47:27.936Z,66.53
2022-10-01T20:50:45.360Z,66.30
2022-10-01T20:53:55.371Z,66.13
2022-10-01T20:57:15.614Z,65.87
2022-10-01T21:00:20.050Z,66.27
2022-10-01T21:03:26.364Z,65.44
2022-10-01T21:06:35.563Z,65.17
2022-10-01T21:09:41.457Z,64.56
2022-10-01T21:12:46.454Z,64.83
2022-10-01T21:15:57.983Z,65.58
2022-10-01T21:19:19.550Z,64.96
2022-10-01T21:22:45.814Z,65.73
2022-10-01T21:25:47.995Z,65.36
2022-10-01T21:29:03.830Z,64.75
2022-10-01T21:32:19.437Z,64.69
2022-10-01T21:35:29.036Z,65.26
2022-10-01T21:38:44.547Z,65.73
2022-10-01T21:42:14.120Z,65.63
2022-10-01T21:45:22.213Z,65.95
2022-10-01T21:48:25.192Z,66.20
2022-10-01T21:51:27.348Z,66.34
2022-10-01T21:54:45.117Z,66.64
2022-10-01T21:57:53.553Z,65.88
2022-10-01T22:01:16.558Z,66.62
2022-10-01T22:04:24.227Z,66.95
2022-10-01T22:07:35.416Z,67.09
2022-10-01T22:10:40.298Z,66.38
2022-10-01T22:13:53.804Z,66.61
2022-10-01T22:16:57.915Z,66.85
2022-10-01T22:20:02.403Z,66.95
2022-10-01T22:23:08.320Z,67.06
2022-10-01T22:26:18.282Z,67.32
2022-10-01T22:29:29.328Z,66.77
2022-10-01T22:32:35.332Z,67.16
2022-10-01T22:35:48.195Z,67.16
2022-10-01T22:38:54.134Z,67.29
2022-10-01T22:42:01.238Z,66.81
2022-10-01T22:45:11.960Z,66.68
2022-10-01T22:48:26.577Z,66.57
2022-10-01T22:51:51.897Z,67.03
2022-10-01T22:54:54.320Z,67.14
2022-10-01T22:58:12.423Z,67.19
2022-10-01T23:01:30.176Z,67.14
2022-10-01T23:04:41.244Z,67.69
2022-10-01T23:08:01.955Z,67.87
2022-10-01T23:11:23.727Z,67.93
2022-10-01T23:14:31.920Z,68.02
2022-10-01T23:17:38.025Z,68.16
2022-10-01T23:20:53.415Z,68.25
2022-10-01T23:24:07.839Z,67.08
2022-10-01T23:27:25.549Z,67.00
2022-10-01T23:30:34.920Z,67.62
2022-10-01T23:33:52.596Z,67.93
2022-10-01T23:36:57.858Z,67.91
2022-10-01T23:40:06.942Z,67.89
2022-10-01T23:43:11.418Z,68.00
2022-10-01T23:46:29.749Z,68.37
2022-10-01T23:49:35.389Z,68.48
2022-10-01T23:52:41.169Z,68.34
2022-10-01T23:56:23.415Z,68.69
2022-10-01T23:59:29.083Z,68.73
